NCAR-RAP Real-Time Weather Data

Output produced by METARs form (23 June 2018  19:25 UTC)
found at http://weather.rap.ucar.edu/surface/
 
Conditions at: KALB observed 23 June 2018  18:51 UTC
Temperature: 15.0°C (59°F)
Dewpoint: 12.2°C (54°F) [RH = 83%]
Pressure (altimeter): 29.89 inches Hg (1012.3 mb)
[Sea-level pressure: 1011.9 mb]
Winds: from the N (360 degrees) at 5 MPH (4 knots; 2.1 m/s)
Visibility: 7 miles (11 km)
Ceiling: 3100 feet AGL
Clouds: few clouds at 700 feet AGL
scattered clouds at 1100 feet AGL
overcast cloud deck at 3100 feet AGL
Present Weather: no significant weather observed at this time
KALB 231851Z 36004KT 7SM FEW007 SCT011 OVC031 15/12 A2989 RMK AO2 RAE46 SLP119 SCT V BKN PRESENT WX VCSH P0005 T01500122

Conditions at: KALB observed 23 June 2018  18:38 UTC
Temperature: 15.0°C (59°F)
Dewpoint: 12.2°C (54°F) [RH = 83%]
Pressure (altimeter): 29.89 inches Hg (1012.3 mb)
Winds: from the N (360 degrees) at 3 MPH (3 knots; 1.6 m/s)
Visibility: 8 miles (13 km)
Ceiling: 3300 feet AGL
Clouds: scattered clouds at 1100 feet AGL
overcast cloud deck at 3300 feet AGL
Present Weather: -RA  (light rain)
KALB 231838Z 36003KT 8SM -RA SCT011 OVC033 15/12 A2989 RMK AO2 P0005 T01500122

Conditions at: KALB observed 23 June 2018  18:20 UTC
Temperature: 15.0°C (59°F)
Dewpoint: 11.7°C (53°F) [RH = 81%]
Pressure (altimeter): 29.89 inches Hg (1012.3 mb)
Winds: from the NNE (30 degrees) at 3 MPH (3 knots; 1.6 m/s)
Visibility: 2.00 miles (3.22 km)
Ceiling: 3300 feet AGL
Clouds: few clouds at 1400 feet AGL
overcast cloud deck at 3300 feet AGL
Present Weather: RA  (rain)
KALB 231820Z 03003KT 2SM R01/4500VP6000FT RA FEW014 OVC033 15/12 A2989 RMK AO2 SFC VIS 2 1/2 P0003 T01500117

Conditions at: KALB observed 23 June 2018  17:51 UTC
Temperature: 15.0°C (59°F)
Dewpoint: 11.7°C (53°F) [RH = 81%]
Pressure (altimeter): 29.90 inches Hg (1012.6 mb)
[Sea-level pressure: 1012.3 mb]
Winds: from the N (360 degrees) at 5 MPH (4 knots; 2.1 m/s)
Visibility: 8 miles (13 km)
Ceiling: 3300 feet AGL
Clouds: few clouds at 1100 feet AGL
overcast cloud deck at 3300 feet AGL
Present Weather: -RA  (light rain)
KALB 231751Z 36004KT 8SM -RA FEW011 OVC033 15/12 A2990 RMK AO2 SLP123 P0002 60028 T01500117 10189 20139 58004

Conditions at: KALB observed 23 June 2018  16:51 UTC
Temperature: 13.9°C (57°F)
Dewpoint: 11.7°C (53°F) [RH = 87%]
Pressure (altimeter): 29.91 inches Hg (1013.0 mb)
[Sea-level pressure: 1012.8 mb]
Winds: from the NNW (340 degrees) at 10 MPH (9 knots; 4.7 m/s)
Visibility: 3 miles (5 km)
Ceiling: 3800 feet AGL
Clouds: overcast cloud deck at 3800 feet AGL
Present Weather: -RA BR  (light rain, mist)
SOME DATA ABOVE MAY BE INACCURATE!!!
"$" is an indication the sensor requires maintenance
KALB 231651Z 34009KT 3SM R01/5500VP6000FT -RA BR OVC038 14/12 A2991 RMK AO2 SLP128 VIS HYR S P0025 T01390117 $

Conditions at: KALB observed 23 June 2018  16:41 UTC
Temperature: 13.9°C (57°F)
Dewpoint: 11.7°C (53°F) [RH = 87%]
Pressure (altimeter): 29.91 inches Hg (1013.0 mb)
Winds: from the NNW (340 degrees) at 7 MPH (6 knots; 3.1 m/s)
Visibility: 2.00 miles (3.22 km)
Ceiling: 3600 feet AGL
Clouds: overcast cloud deck at 3600 feet AGL
Present Weather: RA BR  (rain, mist)
SOME DATA ABOVE MAY BE INACCURATE!!!
"$" is an indication the sensor requires maintenance
KALB 231641Z 34006KT 2SM R01/3500VP6000FT RA BR OVC036 14/12 A2991 RMK AO2 TWR VIS 3 P0022 T01390117 $

Conditions at: KALB observed 23 June 2018  15:51 UTC
Temperature: 16.7°C (62°F)
Dewpoint: 10.0°C (50°F) [RH = 65%]
Pressure (altimeter): 29.92 inches Hg (1013.3 mb)
[Sea-level pressure: 1013.2 mb]
Winds: from the WSW (250 degrees) at 8 MPH (7 knots; 3.6 m/s)
Visibility: 6 miles (10 km)
Ceiling: 3500 feet AGL
Clouds: overcast cloud deck at 3500 feet AGL
Present Weather: -RA  (light rain)
KALB 231551Z 25007KT 6SM -RA OVC035 17/10 A2992 RMK AO2 SLP132 P0001 T01670100

Conditions at: KALB observed 23 June 2018  14:51 UTC
Temperature: 18.9°C (66°F)
Dewpoint: 9.4°C (49°F) [RH = 54%]
Pressure (altimeter): 29.91 inches Hg (1013.0 mb)
[Sea-level pressure: 1012.6 mb]
Winds: from the ESE (120 degrees) at 3 MPH (3 knots; 1.6 m/s)
Visibility: 10 or more miles (16+ km)
Ceiling: 3800 feet AGL
Clouds: overcast cloud deck at 3800 feet AGL
Present Weather: -RA  (light rain)
KALB 231451Z 12003KT 10SM -RA OVC038 19/09 A2991 RMK AO2 RAB25 SLP126 PCPN LGT AND INTMT P0000 60000 T01890094 58015

Conditions at: KALB observed 23 June 2018  13:51 UTC
Temperature: 18.9°C (66°F)
Dewpoint: 8.3°C (47°F) [RH = 50%]
Pressure (altimeter): 29.93 inches Hg (1013.6 mb)
[Sea-level pressure: 1013.2 mb]
Winds: from the E (100 degrees) at 3 MPH (3 knots; 1.6 m/s)
Visibility: 10 or more miles (16+ km)
Ceiling: 4700 feet AGL
Clouds: overcast cloud deck at 4700 feet AGL
Present Weather: no significant weather observed at this time
KALB 231351Z 10003KT 10SM OVC047 19/08 A2993 RMK AO2 RAB07E14 SLP132 VCSH N-E SHRA DSNT SE-SW P0000 T01890083

Conditions at: KALB observed 23 June 2018  12:51 UTC
Temperature: 18.3°C (65°F)
Dewpoint: 8.3°C (47°F) [RH = 52%]
Pressure (altimeter): 29.94 inches Hg (1014.0 mb)
[Sea-level pressure: 1013.8 mb]
Winds: variable direction winds at 5 MPH (4 knots; 2.1 m/s)
Visibility: 10 or more miles (16+ km)
Ceiling: 5500 feet AGL
Clouds: overcast cloud deck at 5500 feet AGL
Present Weather: no significant weather observed at this time
KALB 231251Z VRB04KT 10SM OVC055 18/08 A2994 RMK AO2 SLP138 VCSH DSNT NE AND NW-N T01830083

Conditions at: KALB observed 23 June 2018  11:51 UTC
Temperature: 18.3°C (65°F)
Dewpoint: 8.3°C (47°F) [RH = 52%]
Pressure (altimeter): 29.95 inches Hg (1014.3 mb)
[Sea-level pressure: 1014.1 mb]
Winds: from the ESE (120 degrees) at 3 MPH (3 knots; 1.6 m/s)
Visibility: 10 or more miles (16+ km)
Ceiling: 6000 feet AGL
Clouds: overcast cloud deck at 6000 feet AGL
Present Weather: no significant weather observed at this time
KALB 231151Z 12003KT 10SM OVC060 18/08 A2995 RMK AO2 RAE08 SLP141 VCSH DSNT SE-S AND W-NW P0000 60000 T01830083 10194 20178 56007

Conditions at: KALB observed 23 June 2018  10:51 UTC
Temperature: 17.8°C (64°F)
Dewpoint: 7.8°C (46°F) [RH = 52%]
Pressure (altimeter): 29.96 inches Hg (1014.6 mb)
[Sea-level pressure: 1014.5 mb]
Winds: from the S (170 degrees) at 3 MPH (3 knots; 1.6 m/s)
Visibility: 10 or more miles (16+ km)
Ceiling: 6000 feet AGL
Clouds: few clouds at 5000 feet AGL
broken clouds at 6000 feet AGL
overcast cloud deck at 7500 feet AGL
Present Weather: -RA  (light rain)
KALB 231051Z 17003KT 10SM -RA FEW050 BKN060 OVC075 18/08 A2996 RMK AO2 RAB50 SLP145 VCSH W-N AND SE P0000 T01780078

Conditions at: KALB observed 23 June 2018  09:51 UTC
Temperature: 17.8°C (64°F)
Dewpoint: 7.2°C (45°F) [RH = 50%]
Pressure (altimeter): 29.95 inches Hg (1014.3 mb)
[Sea-level pressure: 1014.2 mb]
Winds: from the ESE (110 degrees) at 5 MPH (4 knots; 2.1 m/s)
Visibility: 10 or more miles (16+ km)
Ceiling: 13000 feet AGL
Clouds: scattered clouds at 7500 feet AGL
broken clouds at 13000 feet AGL
overcast cloud deck at 16000 feet AGL
Present Weather: no significant weather observed at this time
KALB 230951Z 11004KT 10SM SCT075 BKN130 OVC160 18/07 A2995 RMK AO2 RAE20 SLP142 P0000 T01780072

Conditions at: KALB observed 23 June 2018  08:51 UTC
Temperature: 18.3°C (65°F)
Dewpoint: 8.3°C (47°F) [RH = 52%]
Pressure (altimeter): 29.97 inches Hg (1015.0 mb)
[Sea-level pressure: 1014.8 mb]
Winds: variable direction winds at 3 MPH (3 knots; 1.6 m/s)
Visibility: 10 or more miles (16+ km)
Ceiling: 9000 feet AGL
Clouds: broken clouds at 9000 feet AGL
broken clouds at 11000 feet AGL
overcast cloud deck at 14000 feet AGL
Present Weather: -RA  (light rain)
KALB 230851Z VRB03KT 10SM -RA BKN090 BKN110 OVC140 18/08 A2997 RMK AO2 RAB50 SLP148 PCPN VRY LGT P0000 60000 T01830083 55009

Conditions at: KALB observed 23 June 2018  07:51 UTC
Temperature: 18.9°C (66°F)
Dewpoint: 8.3°C (47°F) [RH = 50%]
Pressure (altimeter): 29.97 inches Hg (1015.0 mb)
[Sea-level pressure: 1014.8 mb]
Winds: from the SSE (150 degrees) at 5 MPH (4 knots; 2.1 m/s)
Visibility: 10 or more miles (16+ km)
Ceiling: 12000 feet AGL
Clouds: few clouds at 7000 feet AGL
broken clouds at 12000 feet AGL
overcast cloud deck at 15000 feet AGL
Present Weather: no significant weather observed at this time
KALB 230751Z 15004KT 10SM FEW070 BKN120 OVC150 19/08 A2997 RMK AO2 SLP148 T01890083